createdAt,value
2019-05-02T00:01:00.053Z,78.50
2019-05-02T00:03:27.640Z,78.90
2019-05-02T00:05:55.992Z,79.40
2019-05-02T00:08:23.614Z,79.30
2019-05-02T00:10:51.205Z,79.50
2019-05-02T00:13:18.821Z,79.70
2019-05-02T00:15:46.440Z,79.90
2019-05-02T00:18:14.026Z,80.10
2019-05-02T00:20:42.387Z,80.60
2019-05-02T00:23:10.042Z,80.50
2019-05-02T00:25:37.629Z,80.40
2019-05-02T00:28:07.876Z,80.50
2019-05-02T00:30:34.606Z,80.40
2019-05-02T00:33:01.207Z,80.20
2019-05-02T00:35:28.797Z,80.30
2019-05-02T00:37:57.509Z,80.50
2019-05-02T00:40:25.696Z,80.60
2019-05-02T00:42:53.266Z,80.80
2019-05-02T00:45:24.001Z,81.10
2019-05-02T00:47:47.934Z,81.20
2019-05-02T00:50:14.414Z,81.50
2019-05-02T00:52:42.598Z,81.90
2019-05-02T00:55:10.195Z,82.30
2019-05-02T00:57:37.778Z,82.70
2019-05-02T01:00:05.410Z,82.60
2019-05-02T01:02:35.794Z,82.40
2019-05-02T01:05:03.578Z,82.40
2019-05-02T01:07:30.834Z,82.40
2019-05-02T01:09:58.426Z,82.60
2019-05-02T01:12:26.889Z,83.50
2019-05-02T01:14:53.906Z,82.60
2019-05-02T01:17:21.495Z,82.50
2019-05-02T01:19:51.475Z,82.50
2019-05-02T01:22:17.308Z,82.60
2019-05-02T01:24:44.309Z,82.70
2019-05-02T01:27:18.159Z,83.60
2019-05-02T01:29:45.817Z,82.80
2019-05-02T01:32:13.393Z,82.70
2019-05-02T01:34:43.751Z,82.60
2019-05-02T01:37:12.443Z,82.70
2019-05-02T01:39:42.699Z,82.70
2019-05-02T01:42:06.558Z,82.80
2019-05-02T01:44:36.240Z,83.10
2019-05-02T01:47:01.738Z,83.50
2019-05-02T01:49:29.327Z,83.80
2019-05-02T01:51:56.982Z,84.20
2019-05-02T01:54:24.556Z,84.60
2019-05-02T01:56:52.137Z,85.80
2019-05-02T01:59:20.521Z,85.10
2019-05-02T02:01:53.254Z,85.40
2019-05-02T02:04:20.889Z,85.40
2019-05-02T02:06:45.165Z,87.90
2019-05-02T02:09:13.190Z,87.00
2019-05-02T02:11:40.776Z,87.00
2019-05-02T02:14:12.772Z,87.20
2019-05-02T02:16:39.312Z,88.00
2019-05-02T02:19:04.122Z,86.70
2019-05-02T02:21:36.710Z,86.30
2019-05-02T02:24:07.198Z,86.10
2019-05-02T02:26:34.809Z,85.80
2019-05-02T02:29:03.119Z,85.70
2019-05-02T02:31:30.012Z,85.70
2019-05-02T02:33:57.597Z,85.80
2019-05-02T02:36:31.752Z,86.00
2019-05-02T02:38:52.848Z,86.00
2019-05-02T02:41:20.428Z,85.80
2019-05-02T02:44:07.043Z,85.70
2019-05-02T02:46:37.924Z,85.70
2019-05-02T02:49:02.971Z,85.60
2019-05-02T02:51:30.601Z,85.60
2019-05-02T02:54:03.941Z,85.50
2019-05-02T02:56:26.538Z,86.40
2019-05-02T02:58:54.154Z,86.40
2019-05-02T03:01:29.021Z,85.60
2019-05-02T03:03:49.324Z,85.80
2019-05-02T03:06:16.947Z,86.40
2019-05-02T03:08:48.865Z,86.90
2019-05-02T03:11:22.320Z,87.50
2019-05-02T03:13:53.718Z,88.10
2019-05-02T03:16:22.392Z,88.70
2019-05-02T03:18:49.975Z,89.00
2019-05-02T03:21:20.277Z,90.00
2019-05-02T03:23:45.194Z,89.60
2019-05-02T03:26:14.795Z,88.40
2019-05-02T03:28:41.146Z,87.40
2019-05-02T03:31:23.954Z,87.10
2019-05-02T03:33:51.596Z,87.00
2019-05-02T03:36:05.473Z,86.30
2019-05-02T03:38:35.188Z,86.40
2019-05-02T03:41:01.395Z,86.40
2019-05-02T03:43:29.019Z,86.70
2019-05-02T03:45:56.602Z,88.20
2019-05-02T03:48:25.966Z,86.90
2019-05-02T03:50:51.804Z,87.00
2019-05-02T03:53:25.177Z,87.40
2019-05-02T03:55:46.974Z,87.60
2019-05-02T03:58:16.913Z,88.30
2019-05-02T04:00:43.716Z,87.70
2019-05-02T04:03:11.298Z,87.70
2019-05-02T04:05:40.258Z,87.90
2019-05-02T04:08:19.958Z,88.00
2019-05-02T04:10:44.497Z,87.90
2019-05-02T04:13:12.079Z,87.90
2019-05-02T04:15:39.667Z,88.00
2019-05-02T04:18:08.356Z,88.20
2019-05-02T04:20:35.670Z,88.10
2019-05-02T04:23:03.252Z,88.50
2019-05-02T04:25:34.015Z,87.90
2019-05-02T04:27:59.996Z,87.10
2019-05-02T04:30:27.845Z,87.00
2019-05-02T04:32:56.156Z,87.30
2019-05-02T04:35:28.876Z,86.60
2019-05-02T04:37:50.660Z,86.60
2019-05-02T04:40:18.438Z,87.00
2019-05-02T04:42:51.233Z,87.50
2019-05-02T04:45:24.967Z,87.70
2019-05-02T04:47:42.431Z,90.20
2019-05-02T04:50:18.162Z,89.80
2019-05-02T04:52:38.297Z,89.20
2019-05-02T04:55:17.564Z,89.20
2019-05-02T04:57:37.015Z,89.40
2019-05-02T05:00:06.222Z,89.70
2019-05-02T05:02:34.737Z,88.80
2019-05-02T05:04:55.020Z,88.80
2019-05-02T05:07:22.609Z,89.10
2019-05-02T05:09:57.165Z,89.40
2019-05-02T05:12:19.465Z,89.60
2019-05-02T05:14:47.213Z,89.80
2019-05-02T05:17:13.026Z,89.80
2019-05-02T05:19:40.616Z,89.70
2019-05-02T05:22:11.779Z,89.50
2019-05-02T05:24:42.326Z,89.80
2019-05-02T05:27:08.278Z,89.00
2019-05-02T05:29:34.957Z,89.00
2019-05-02T05:32:05.576Z,88.90
2019-05-02T05:34:32.628Z,88.90
2019-05-02T05:36:58.337Z,90.00
2019-05-02T05:39:28.047Z,90.00
2019-05-02T05:41:53.545Z,89.30
2019-05-02T05:44:23.305Z,89.00
2019-05-02T05:46:49.483Z,89.60
2019-05-02T05:49:20.342Z,89.00
2019-05-02T05:51:44.670Z,88.90
2019-05-02T05:54:13.069Z,90.10
2019-05-02T05:56:43.228Z,90.10
2019-05-02T05:59:08.247Z,89.60
2019-05-02T06:01:37.887Z,89.80
2019-05-02T06:04:03.459Z,90.00
2019-05-02T06:06:31.041Z,90.70
2019-05-02T06:08:58.681Z,90.30
2019-05-02T06:11:26.263Z,91.10
2019-05-02T06:13:53.854Z,90.30
2019-05-02T06:16:21.487Z,90.30
2019-05-02T06:18:51.864Z,90.90
2019-05-02T06:21:19.435Z,90.50
2019-05-02T06:23:47.539Z,90.40
2019-05-02T06:26:15.625Z,90.40
2019-05-02T06:28:43.289Z,90.50
2019-05-02T06:31:11.098Z,90.70
2019-05-02T06:33:38.679Z,90.70
2019-05-02T06:36:06.267Z,90.70
2019-05-02T06:38:34.878Z,90.70
2019-05-02T06:41:03.233Z,90.80
2019-05-02T06:43:30.815Z,90.80
2019-05-02T06:45:58.441Z,90.40
2019-05-02T06:48:26.028Z,90.30
2019-05-02T06:50:53.624Z,90.30
2019-05-02T06:53:21.264Z,90.30
2019-05-02T06:55:48.845Z,90.50
2019-05-02T06:58:17.202Z,89.60
2019-05-02T07:00:56.641Z,89.60
2019-05-02T07:03:12.431Z,89.30
2019-05-02T07:05:40.023Z,89.20
2019-05-02T07:08:11.932Z,89.30
2019-05-02T07:10:44.573Z,89.60
2019-05-02T07:13:10.904Z,89.60
2019-05-02T07:15:48.560Z,89.40
2019-05-02T07:18:13.971Z,89.40
2019-05-02T07:20:42.541Z,89.50
2019-05-02T07:23:10.474Z,89.40
2019-05-02T07:25:39.133Z,89.40
2019-05-02T07:28:09.451Z,88.90
2019-05-02T07:30:35.025Z,88.00
2019-05-02T07:33:01.140Z,86.90
2019-05-02T07:35:28.033Z,86.40
2019-05-02T07:37:56.922Z,85.30
2019-05-02T07:40:25.283Z,85.30
2019-05-02T07:42:52.866Z,84.70
2019-05-02T07:45:20.514Z,84.10
2019-05-02T07:47:48.106Z,84.60
2019-05-02T07:50:15.699Z,84.10
2019-05-02T07:52:43.812Z,82.70
2019-05-02T07:55:11.401Z,82.40
2019-05-02T07:57:39.762Z,82.20
2019-05-02T08:00:07.867Z,82.20
2019-05-02T08:02:35.464Z,82.20
2019-05-02T08:05:03.054Z,81.90
2019-05-02T08:07:34.271Z,81.60
2019-05-02T08:09:59.499Z,80.70
2019-05-02T08:12:27.654Z,80.70
2019-05-02T08:14:55.329Z,80.20
2019-05-02T08:17:22.910Z,79.60
2019-05-02T08:19:50.496Z,78.80
2019-05-02T08:22:18.953Z,78.50
2019-05-02T08:24:46.552Z,78.50
2019-05-02T08:27:16.763Z,78.40
2019-05-02T08:29:45.197Z,78.30
2019-05-02T08:32:12.777Z,78.20
2019-05-02T08:34:40.367Z,78.20
2019-05-02T08:37:08.793Z,77.10
2019-05-02T08:39:36.382Z,77.10
2019-05-02T08:42:04.325Z,77.00
2019-05-02T08:44:32.193Z,76.80
2019-05-02T08:46:59.782Z,76.50
2019-05-02T08:49:27.365Z,76.20
2019-05-02T08:51:55.790Z,75.60
2019-05-02T08:54:23.385Z,75.50
2019-05-02T08:56:53.501Z,74.90
2019-05-02T08:59:19.858Z,74.50
2019-05-02T09:01:49.407Z,74.40
2019-05-02T09:04:15.724Z,73.90
2019-05-02T09:06:46.010Z,73.90
2019-05-02T09:09:10.913Z,73.20
2019-05-02T09:11:39.271Z,72.10
2019-05-02T09:14:06.917Z,71.30
2019-05-02T09:16:34.509Z,70.50
2019-05-02T09:19:02.739Z,70.20
2019-05-02T09:21:34.321Z,70.00
2019-05-02T09:23:57.339Z,69.40
2019-05-02T09:26:35.003Z,68.70
2019-05-02T09:28:56.393Z,67.50
2019-05-02T09:31:20.146Z,67.50
2019-05-02T09:33:47.731Z,68.00
2019-05-02T09:36:15.377Z,66.20
2019-05-02T09:38:42.993Z,65.50
2019-05-02T09:41:18.437Z,65.50
2019-05-02T09:43:42.278Z,64.80
2019-05-02T09:46:12.953Z,64.70
2019-05-02T09:48:35.590Z,63.50
2019-05-02T09:51:11.589Z,63.20
2019-05-02T09:53:32.477Z,63.10
2019-05-02T09:56:02.160Z,61.00
2019-05-02T09:58:28.466Z,61.00
2019-05-02T10:00:56.051Z,60.90
2019-05-02T10:03:24.408Z,59.80
2019-05-02T10:05:52.396Z,59.70
2019-05-02T10:08:19.640Z,59.80
2019-05-02T10:10:47.826Z,59.80
2019-05-02T10:13:15.992Z,58.90
2019-05-02T10:15:43.573Z,58.40
2019-05-02T10:18:13.755Z,58.50
2019-05-02T10:20:38.837Z,58.30
2019-05-02T10:23:06.445Z,58.10
2019-05-02T10:25:38.626Z,58.10
2019-05-02T10:28:02.759Z,57.50
2019-05-02T10:30:32.868Z,56.80
2019-05-02T10:32:58.011Z,55.40
2019-05-02T10:35:28.158Z,55.80
2019-05-02T10:37:54.172Z,54.30
2019-05-02T10:40:22.817Z,54.20
2019-05-02T10:42:52.241Z,54.20
2019-05-02T10:45:18.030Z,54.10
2019-05-02T10:47:45.620Z,53.50
2019-05-02T10:50:13.259Z,53.60
2019-05-02T10:52:42.491Z,53.10
2019-05-02T10:55:08.444Z,52.90
2019-05-02T10:57:36.846Z,51.60
2019-05-02T11:00:07.129Z,51.50
2019-05-02T11:02:52.792Z,50.90
2019-05-02T11:05:24.656Z,50.80
2019-05-02T11:07:48.769Z,50.60
2019-05-02T11:10:16.423Z,50.50
2019-05-02T11:12:47.330Z,50.60
2019-05-02T11:15:14.829Z,50.50
2019-05-02T11:17:43.260Z,50.80
2019-05-02T11:20:12.307Z,50.80
2019-05-02T11:22:38.443Z,50.50
2019-05-02T11:25:06.853Z,46.80
2019-05-02T11:27:34.439Z,46.80
2019-05-02T11:30:02.717Z,46.50
2019-05-02T11:32:32.548Z,46.10
2019-05-02T11:34:58.043Z,46.00
2019-05-02T11:37:26.923Z,45.50
2019-05-02T11:40:00.485Z,44.80
2019-05-02T11:42:27.171Z,44.50
2019-05-02T11:44:52.946Z,44.00
2019-05-02T11:47:24.878Z,43.30
2019-05-02T11:49:53.922Z,43.30
2019-05-02T11:52:16.530Z,43.80
2019-05-02T11:54:48.339Z,43.50
2019-05-02T11:57:11.790Z,41.70
2019-05-02T11:59:39.337Z,40.30
2019-05-02T12:02:22.540Z,37.90
2019-05-02T12:04:52.485Z,37.80
2019-05-02T12:07:17.719Z,37.40
2019-05-02T12:09:52.061Z,37.70
2019-05-02T12:12:15.662Z,38.00
2019-05-02T12:14:41.877Z,38.00
2019-05-02T12:17:08.939Z,38.50
2019-05-02T12:19:37.305Z,36.90
2019-05-02T12:22:07.194Z,36.80
2019-05-02T12:24:36.470Z,36.40
2019-05-02T12:27:02.531Z,36.30
2019-05-02T12:29:28.450Z,36.70
2019-05-02T12:31:56.500Z,36.70
2019-05-02T12:34:23.675Z,36.40
2019-05-02T12:36:52.315Z,36.40
2019-05-02T12:39:19.675Z,35.10
2019-05-02T12:41:47.530Z,35.00
2019-05-02T12:44:14.849Z,34.60
2019-05-02T12:46:42.479Z,34.80
2019-05-02T12:49:23.956Z,35.40
2019-05-02T12:51:37.664Z,35.00
2019-05-02T12:54:06.101Z,33.80
2019-05-02T12:56:33.693Z,33.70
2019-05-02T12:59:02.423Z,33.90
2019-05-02T13:01:30.059Z,33.60
2019-05-02T13:04:06.398Z,33.50
2019-05-02T13:06:36.966Z,33.80
2019-05-02T13:09:03.065Z,34.10
2019-05-02T13:11:44.390Z,33.00
2019-05-02T13:14:17.745Z,32.80
2019-05-02T13:16:37.325Z,32.30
2019-05-02T13:19:06.256Z,32.20
2019-05-02T13:21:42.259Z,33.10
2019-05-02T13:24:07.542Z,33.50
2019-05-02T13:26:32.048Z,33.60
2019-05-02T13:28:58.289Z,33.90
2019-05-02T13:31:32.162Z,33.20
2019-05-02T13:34:01.713Z,33.90
2019-05-02T13:36:39.429Z,34.20
2019-05-02T13:39:07.889Z,35.00
2019-05-02T13:41:35.486Z,35.00
2019-05-02T13:44:03.840Z,35.20
2019-05-02T13:46:32.263Z,35.10
2019-05-02T13:48:59.067Z,35.30
2019-05-02T13:51:26.663Z,35.10
2019-05-02T13:53:54.337Z,36.00
2019-05-02T13:56:22.102Z,35.30
2019-05-02T13:58:51.870Z,35.90
2019-05-02T14:01:18.402Z,35.80
2019-05-02T14:03:48.670Z,36.10
2019-05-02T14:06:16.261Z,37.00
2019-05-02T14:08:44.570Z,37.50
2019-05-02T14:11:31.728Z,37.90
2019-05-02T14:13:57.839Z,38.50
2019-05-02T14:16:26.194Z,39.10
2019-05-02T14:18:53.787Z,39.10
2019-05-02T14:21:22.467Z,39.80
2019-05-02T14:23:51.696Z,39.80
2019-05-02T14:26:29.702Z,41.20
2019-05-02T14:28:45.824Z,41.20
2019-05-02T14:31:13.440Z,41.10
2019-05-02T14:33:42.317Z,41.30
2019-05-02T14:36:09.056Z,41.70
2019-05-02T14:38:36.634Z,41.40
2019-05-02T14:41:06.664Z,41.60
2019-05-02T14:43:49.643Z,42.00
2019-05-02T14:46:17.963Z,42.50
2019-05-02T14:48:45.415Z,42.90
2019-05-02T14:51:16.658Z,43.00
2019-05-02T14:53:39.944Z,43.10
2019-05-02T14:56:12.160Z,43.10
2019-05-02T14:58:39.091Z,43.20
2019-05-02T15:01:05.652Z,43.00
2019-05-02T15:03:33.257Z,43.30
2019-05-02T15:06:04.069Z,43.60
2019-05-02T15:08:28.809Z,44.30
2019-05-02T15:10:56.732Z,44.50
2019-05-02T15:13:24.039Z,44.60
2019-05-02T15:15:53.014Z,44.60
2019-05-02T15:18:19.220Z,44.50
2019-05-02T15:20:46.872Z,44.20
2019-05-02T15:23:19.596Z,45.10
2019-05-02T15:25:47.126Z,45.10
2019-05-02T15:28:12.953Z,45.30
2019-05-02T15:30:44.833Z,45.60
2019-05-02T15:33:06.802Z,48.90
2019-05-02T15:35:38.166Z,48.60
2019-05-02T15:38:06.938Z,49.10
2019-05-02T15:40:43.348Z,49.70
2019-05-02T15:43:08.953Z,50.40
2019-05-02T15:45:31.943Z,50.50
2019-05-02T15:47:57.721Z,51.00
2019-05-02T15:50:26.189Z,51.60
2019-05-02T15:52:57.185Z,51.60
2019-05-02T15:55:21.986Z,51.70
2019-05-02T15:57:49.445Z,51.90
2019-05-02T16:00:24.549Z,52.70
2019-05-02T16:02:45.034Z,52.70
2019-05-02T16:05:13.451Z,53.50
2019-05-02T16:07:43.233Z,53.50
2019-05-02T16:10:08.644Z,53.30
2019-05-02T16:12:37.073Z,53.90
2019-05-02T16:15:13.004Z,53.80
2019-05-02T16:17:33.430Z,54.20
2019-05-02T16:20:07.587Z,55.40
2019-05-02T16:22:28.706Z,54.70
2019-05-02T16:24:56.725Z,54.70
2019-05-02T16:27:26.758Z,55.10
2019-05-02T16:29:51.533Z,55.70
2019-05-02T16:32:35.770Z,56.30
2019-05-02T16:34:59.152Z,57.50
2019-05-02T16:37:26.740Z,57.20
2019-05-02T16:39:54.402Z,57.50
2019-05-02T16:42:22.751Z,57.80
2019-05-02T16:44:49.611Z,57.90
2019-05-02T16:47:17.284Z,58.10
2019-05-02T16:49:47.922Z,58.30
2019-05-02T16:52:13.143Z,58.50
2019-05-02T16:54:41.885Z,59.20
2019-05-02T16:57:07.728Z,58.80
2019-05-02T16:59:35.307Z,58.80
2019-05-02T17:02:07.519Z,58.90
2019-05-02T17:04:31.943Z,59.10
2019-05-02T17:07:02.221Z,59.40
2019-05-02T17:09:33.809Z,59.80
2019-05-02T17:12:01.973Z,62.00
2019-05-02T17:14:28.366Z,62.00
2019-05-02T17:16:56.785Z,63.10
2019-05-02T17:19:26.091Z,63.10
2019-05-02T17:21:56.223Z,63.30
2019-05-02T17:24:24.605Z,64.00
2019-05-02T17:26:47.984Z,64.60
2019-05-02T17:29:16.442Z,64.20
2019-05-02T17:31:44.798Z,65.10
2019-05-02T17:34:14.801Z,65.10
2019-05-02T17:36:39.971Z,65.20
2019-05-02T17:39:08.329Z,65.70
2019-05-02T17:41:37.054Z,66.30
2019-05-02T17:44:03.249Z,67.60
2019-05-02T17:46:30.535Z,67.50
2019-05-02T17:48:58.121Z,67.10
2019-05-02T17:51:33.882Z,67.40
2019-05-02T17:53:59.219Z,68.00
2019-05-02T17:56:26.803Z,68.30
2019-05-02T17:58:58.347Z,68.90
2019-05-02T18:01:26.475Z,70.60
2019-05-02T18:03:52.056Z,70.60
2019-05-02T18:06:29.793Z,70.20
2019-05-02T18:08:46.290Z,71.50
2019-05-02T18:11:13.338Z,71.20
2019-05-02T18:13:42.340Z,71.70
2019-05-02T18:16:15.130Z,72.10
2019-05-02T18:18:37.450Z,72.40
2019-05-02T18:21:03.810Z,73.50
2019-05-02T18:23:32.234Z,73.10
2019-05-02T18:26:04.428Z,73.50
2019-05-02T18:28:27.453Z,74.80
2019-05-02T18:30:57.292Z,74.00
2019-05-02T18:33:22.762Z,73.40
2019-05-02T18:35:50.252Z,73.30
2019-05-02T18:38:20.987Z,73.40
2019-05-02T18:40:45.476Z,73.90
2019-05-02T18:43:13.056Z,73.00
2019-05-02T18:45:42.581Z,72.80
2019-05-02T18:48:09.099Z,72.70
2019-05-02T18:50:44.453Z,73.40
2019-05-02T18:53:05.108Z,73.40
2019-05-02T18:55:32.689Z,73.80
2019-05-02T18:58:03.805Z,74.30
2019-05-02T19:00:35.538Z,74.60
2019-05-02T19:02:56.606Z,75.20
2019-05-02T19:05:26.415Z,75.10
2019-05-02T19:07:56.021Z,75.10
2019-05-02T19:10:20.294Z,75.50
2019-05-02T19:12:47.873Z,75.40
2019-05-02T19:15:16.642Z,75.80
2019-05-02T19:17:44.592Z,75.80
2019-05-02T19:20:23.877Z,75.90
2019-05-02T19:22:56.571Z,76.10
2019-05-02T19:25:19.047Z,76.20
2019-05-02T19:27:52.011Z,76.60
2019-05-02T19:30:18.826Z,77.00
2019-05-02T19:32:45.002Z,77.20
2019-05-02T19:35:12.979Z,77.50
2019-05-02T19:37:46.073Z,78.00
2019-05-02T19:40:08.144Z,78.30
2019-05-02T19:42:36.543Z,78.70
2019-05-02T19:45:11.481Z,79.20
2019-05-02T19:47:32.482Z,79.20
2019-05-02T19:50:02.932Z,79.60
2019-05-02T19:52:37.187Z,79.60
2019-05-02T19:54:58.791Z,79.80
2019-05-02T19:57:26.364Z,80.00
2019-05-02T19:59:52.480Z,80.10
2019-05-02T20:02:19.680Z,81.00
2019-05-02T20:04:48.344Z,79.90
2019-05-02T20:07:15.930Z,79.80
2019-05-02T20:09:47.207Z,79.80
2019-05-02T20:12:15.486Z,79.70
2019-05-02T20:14:46.065Z,79.80
2019-05-02T20:17:07.455Z,80.20
2019-05-02T20:19:36.245Z,81.00
2019-05-02T20:22:06.765Z,80.10
2019-05-02T20:24:49.198Z,80.10
2019-05-02T20:27:14.321Z,80.00
2019-05-02T20:29:42.631Z,80.10
2019-05-02T20:32:10.292Z,80.20
2019-05-02T20:34:38.652Z,79.50
2019-05-02T20:37:06.919Z,79.40
2019-05-02T20:39:34.533Z,79.40
2019-05-02T20:42:02.667Z,79.40
2019-05-02T20:44:29.750Z,79.40
2019-05-02T20:46:58.002Z,79.60
2019-05-02T20:49:26.382Z,79.90
2019-05-02T20:51:54.758Z,80.10
2019-05-02T20:54:23.226Z,80.10
2019-05-02T20:56:51.949Z,80.10
2019-05-02T20:59:18.459Z,80.20
2019-05-02T21:01:46.123Z,80.20
2019-05-02T21:04:13.729Z,80.30
2019-05-02T21:06:44.304Z,80.40
2019-05-02T21:09:12.096Z,80.50
2019-05-02T21:11:39.536Z,80.60
2019-05-02T21:14:07.157Z,80.60
2019-05-02T21:16:34.818Z,80.60
2019-05-02T21:19:02.427Z,80.70
2019-05-02T21:21:30.045Z,80.80
2019-05-02T21:23:57.722Z,80.90
2019-05-02T21:26:25.320Z,81.80
2019-05-02T21:28:52.935Z,81.90
2019-05-02T21:31:22.390Z,81.10
2019-05-02T21:33:48.203Z,81.00
2019-05-02T21:36:15.810Z,81.10
2019-05-02T21:38:43.466Z,81.20
2019-05-02T21:41:11.100Z,81.30
2019-05-02T21:43:38.686Z,81.50
2019-05-02T21:46:06.342Z,81.60
2019-05-02T21:48:34.721Z,82.00
2019-05-02T21:51:12.167Z,82.10
2019-05-02T21:53:58.447Z,82.10
2019-05-02T21:56:40.004Z,82.30
2019-05-02T21:59:08.371Z,82.70
2019-05-02T22:01:42.328Z,84.40
2019-05-02T22:04:09.765Z,83.60
2019-05-02T22:06:37.383Z,82.90
2019-05-02T22:09:04.987Z,83.10
2019-05-02T22:11:32.656Z,82.30
2019-05-02T22:14:02.223Z,82.60
2019-05-02T22:16:27.858Z,81.80
2019-05-02T22:18:56.848Z,81.80
2019-05-02T22:21:25.225Z,81.90
2019-05-02T22:23:53.599Z,82.20
2019-05-02T22:26:22.096Z,81.90
2019-05-02T22:28:49.958Z,82.10
2019-05-02T22:31:18.341Z,82.40
2019-05-02T22:33:46.749Z,82.70
2019-05-02T22:36:14.359Z,82.60
2019-05-02T22:39:01.970Z,82.70
2019-05-02T22:41:27.547Z,82.90
2019-05-02T22:43:55.160Z,82.90
2019-05-02T22:46:42.888Z,82.90
2019-05-02T22:49:09.355Z,83.20
2019-05-02T22:51:37.732Z,83.20
2019-05-02T22:54:06.148Z,83.10
2019-05-02T22:56:33.772Z,83.20
2019-05-02T22:59:02.195Z,83.30
2019-05-02T23:01:29.034Z,83.40
2019-05-02T23:03:56.639Z,84.00
2019-05-02T23:06:24.259Z,83.30
2019-05-02T23:08:52.467Z,83.20
2019-05-02T23:11:21.868Z,83.40
2019-05-02T23:13:48.647Z,83.50
2019-05-02T23:16:16.303Z,83.50
2019-05-02T23:18:43.912Z,83.50
2019-05-02T23:21:12.720Z,83.40
2019-05-02T23:23:39.165Z,83.40
2019-05-02T23:26:09.283Z,83.40
2019-05-02T23:28:36.893Z,83.40
2019-05-02T23:31:05.311Z,82.60
2019-05-02T23:33:51.638Z,82.60
2019-05-02T23:36:18.484Z,82.60
2019-05-02T23:38:46.102Z,82.70
2019-05-02T23:41:13.715Z,82.80
2019-05-02T23:43:41.702Z,82.30
2019-05-02T23:46:08.974Z,81.50
2019-05-02T23:48:37.389Z,81.60
2019-05-02T23:51:05.925Z,81.90
2019-05-02T23:53:33.532Z,81.80
2019-05-02T23:56:01.148Z,81.90
2019-05-02T23:58:31.530Z,82.90
